createdAt,value
2023-02-28T00:00:45.014Z,0.69
2023-02-28T00:03:17.043Z,0.63
2023-02-28T00:05:48.876Z,0.58
2023-02-28T00:08:20.602Z,0.64
2023-02-28T00:10:52.298Z,0.66
2023-02-28T00:13:26.797Z,0.70
2023-02-28T00:16:08.293Z,0.71
2023-02-28T00:18:40.409Z,0.72
2023-02-28T00:21:12.216Z,0.73
2023-02-28T00:23:44.764Z,0.75
2023-02-28T00:26:21.587Z,0.78
2023-02-28T00:28:55.493Z,0.78
2023-02-28T00:31:28.788Z,0.76
2023-02-28T00:34:00.725Z,0.76
2023-02-28T00:36:32.744Z,0.69
2023-02-28T00:39:04.540Z,0.73
2023-02-28T00:41:36.282Z,0.78
2023-02-28T00:44:08.151Z,0.85
2023-02-28T00:46:40.965Z,0.85
2023-02-28T00:49:12.675Z,0.85
2023-02-28T00:51:51.135Z,0.89
2023-02-28T00:54:25.759Z,0.93
2023-02-28T00:56:59.989Z,0.98
2023-02-28T00:59:35.868Z,0.93
2023-02-28T01:02:11.640Z,0.81
2023-02-28T01:04:45.309Z,0.81
2023-02-28T01:07:17.113Z,0.73
2023-02-28T01:09:50.083Z,0.72
2023-02-28T01:12:21.796Z,0.72
2023-02-28T01:14:53.485Z,0.74
2023-02-28T01:17:27.485Z,0.74
2023-02-28T01:20:00.400Z,0.75
2023-02-28T01:22:39.678Z,0.69
2023-02-28T01:25:15.993Z,0.75
2023-02-28T01:27:47.791Z,0.76
2023-02-28T01:30:19.515Z,0.75
2023-02-28T01:32:54.528Z,0.70
2023-02-28T01:35:29.169Z,0.71
2023-02-28T01:38:12.333Z,0.73
2023-02-28T01:40:55.628Z,0.73
2023-02-28T01:43:46.055Z,0.67
2023-02-28T01:46:21.531Z,0.65
2023-02-28T01:49:06.437Z,0.61
2023-02-28T01:51:56.029Z,0.62
2023-02-28T01:54:34.741Z,0.54
2023-02-28T01:57:17.646Z,0.58
2023-02-28T01:59:59.548Z,0.62
2023-02-28T02:02:33.250Z,0.60
2023-02-28T02:05:08.808Z,0.55
2023-02-28T02:07:44.853Z,0.56
2023-02-28T02:10:31.066Z,0.52
2023-02-28T02:13:36.542Z,0.46
2023-02-28T02:19:15.298Z,0.36
2023-02-28T02:22:21.315Z,0.34
2023-02-28T02:25:23.855Z,0.30
2023-02-28T02:28:23.265Z,0.28
2023-02-28T02:31:14.996Z,0.21
2023-02-28T02:34:06.757Z,0.21
2023-02-28T02:36:41.644Z,0.21
2023-02-28T02:39:49.690Z,0.13
2023-02-28T02:42:54.472Z,0.14
2023-02-28T02:45:32.815Z,0.12
2023-02-28T02:48:11.266Z,0.08
2023-02-28T02:51:23.112Z,0.05
2023-02-28T02:54:29.584Z,0.04
2023-02-28T02:57:06.846Z,0.14
2023-02-28T02:59:41.793Z,0.01
2023-02-28T03:02:17.205Z,-0.04
2023-02-28T03:05:01.572Z,-0.07
2023-02-28T03:07:36.522Z,-0.06
2023-02-28T03:10:26.914Z,-0.14
2023-02-28T03:13:36.429Z,-0.15
2023-02-28T03:16:38.633Z,-0.12
2023-02-28T03:19:22.938Z,-0.11
2023-02-28T03:22:17.349Z,-0.14
2023-02-28T03:24:49.268Z,-0.10
2023-02-28T03:27:37.796Z,-0.19
2023-02-28T03:30:34.313Z,-0.22
2023-02-28T03:33:15.735Z,-0.33
2023-02-28T03:36:11.242Z,-0.37
2023-02-28T03:38:50.285Z,-0.38
2023-02-28T03:41:40.026Z,-0.47
2023-02-28T03:44:19.533Z,-0.56
2023-02-28T03:46:59.619Z,-0.56
2023-02-28T03:49:59.470Z,-0.53
2023-02-28T03:52:40.239Z,-0.61
2023-02-28T03:55:15.674Z,-0.62
2023-02-28T03:58:02.521Z,-0.58
2023-02-28T04:00:44.761Z,-0.64
2023-02-28T04:03:16.992Z,-0.65
2023-02-28T04:05:53.237Z,-0.61
2023-02-28T04:08:25.105Z,-0.69
2023-02-28T04:11:18.500Z,-0.73
2023-02-28T04:13:53.564Z,-0.74
2023-02-28T04:16:35.531Z,-0.78
2023-02-28T04:19:09.100Z,-0.85
2023-02-28T04:21:46.391Z,-0.87
2023-02-28T04:24:25.772Z,-0.85
2023-02-28T04:26:59.956Z,-0.85
2023-02-28T04:29:45.592Z,-0.81
2023-02-28T04:32:18.946Z,-0.77
2023-02-28T04:34:56.765Z,-0.73
2023-02-28T04:37:29.854Z,-0.75
2023-02-28T04:40:05.136Z,-0.76
2023-02-28T04:42:36.899Z,-0.76
2023-02-28T04:45:12.327Z,-0.80
2023-02-28T04:47:44.057Z,-0.76
2023-02-28T04:50:16.217Z,-0.92
2023-02-28T04:52:50.801Z,-1.05
2023-02-28T04:55:24.480Z,-1.04
2023-02-28T04:57:56.173Z,-1.11
2023-02-28T05:00:27.921Z,-1.10
2023-02-28T05:02:59.615Z,-1.10
2023-02-28T05:05:34.537Z,-1.10
2023-02-28T05:08:06.356Z,-1.11
2023-02-28T05:10:50.513Z,-1.17
2023-02-28T05:13:22.157Z,-1.23
2023-02-28T05:15:54.991Z,-1.22
2023-02-28T05:18:26.653Z,-1.21
2023-02-28T05:20:58.382Z,-1.17
2023-02-28T05:23:33.380Z,-1.23
2023-02-28T05:26:05.349Z,-1.25
2023-02-28T05:28:37.322Z,-1.21
2023-02-28T05:31:28.725Z,-1.31
2023-02-28T05:34:07.546Z,-1.34
2023-02-28T05:36:42.728Z,-1.29
2023-02-28T05:39:14.576Z,-1.27
2023-02-28T05:41:46.303Z,-1.27
2023-02-28T05:44:18.061Z,-1.25
2023-02-28T05:46:49.786Z,-1.24
2023-02-28T05:49:24.204Z,-1.31
2023-02-28T05:51:55.996Z,-1.34
2023-02-28T05:54:27.648Z,-1.33
2023-02-28T05:56:59.468Z,-1.35
2023-02-28T05:59:32.264Z,-1.33
2023-02-28T06:02:04.372Z,-1.30
2023-02-28T06:04:36.098Z,-1.31
2023-02-28T06:07:12.758Z,-1.46
2023-02-28T06:09:44.493Z,-1.47
2023-02-28T06:12:16.242Z,-1.40
2023-02-28T06:14:47.939Z,-1.26
2023-02-28T06:17:19.647Z,-0.74
2023-02-28T06:19:52.521Z,0.06
2023-02-28T06:22:24.279Z,1.17
2023-02-28T06:24:56.043Z,2.32
2023-02-28T06:27:27.765Z,3.49
2023-02-28T06:29:59.498Z,4.48
2023-02-28T06:32:34.269Z,5.60
2023-02-28T06:35:05.862Z,6.51
2023-02-28T06:37:39.085Z,7.45
2023-02-28T06:40:14.061Z,7.74
2023-02-28T06:42:46.110Z,8.60
2023-02-28T06:45:18.220Z,9.78
2023-02-28T06:47:53.250Z,10.84
2023-02-28T06:50:28.640Z,11.26
2023-02-28T06:53:00.388Z,11.22
2023-02-28T06:55:32.437Z,11.46
2023-02-28T06:58:14.592Z,12.05
2023-02-28T07:00:53.742Z,12.43
2023-02-28T07:03:28.316Z,12.35
2023-02-28T07:06:00.200Z,13.35
2023-02-28T07:08:33.333Z,13.47
2023-02-28T07:11:05.582Z,14.05
2023-02-28T07:13:43.156Z,13.82
2023-02-28T07:16:14.911Z,14.46
2023-02-28T07:18:46.992Z,14.31
2023-02-28T07:21:25.778Z,13.99
2023-02-28T07:24:00.421Z,13.67
2023-02-28T07:26:35.518Z,13.09
2023-02-28T07:29:09.647Z,12.50
2023-02-28T07:31:41.432Z,13.07
2023-02-28T07:34:14.212Z,12.39
2023-02-28T07:36:49.061Z,11.98
2023-02-28T07:39:26.968Z,11.60
2023-02-28T07:42:06.039Z,11.68
2023-02-28T07:44:41.748Z,11.49
2023-02-28T07:47:13.448Z,10.85
2023-02-28T07:49:46.351Z,10.17
2023-02-28T07:52:18.152Z,9.64
2023-02-28T07:54:51.530Z,9.21
2023-02-28T07:57:29.110Z,9.13
2023-02-28T08:00:06.286Z,8.70
2023-02-28T08:02:52.306Z,8.98
2023-02-28T08:05:26.178Z,9.00
2023-02-28T08:07:58.240Z,8.63
2023-02-28T08:10:30.008Z,8.20
2023-02-28T08:13:01.731Z,7.79
2023-02-28T08:18:30.818Z,7.74
2023-02-28T08:21:10.941Z,7.39
2023-02-28T08:23:42.860Z,7.27
2023-02-28T08:26:14.985Z,6.68
2023-02-28T08:28:49.191Z,7.54
2023-02-28T08:31:21.044Z,7.99
2023-02-28T08:33:54.340Z,8.48
2023-02-28T08:36:27.714Z,7.81
2023-02-28T08:39:00.653Z,7.64
2023-02-28T08:41:33.029Z,7.28
2023-02-28T08:44:04.939Z,7.27
2023-02-28T08:49:33.220Z,7.04
2023-02-28T08:52:05.001Z,6.74
2023-02-28T08:54:37.245Z,6.24
2023-02-28T08:57:09.080Z,6.02
2023-02-28T08:59:40.783Z,5.67
2023-02-28T09:02:21.558Z,5.73
2023-02-28T09:04:54.522Z,6.11
2023-02-28T09:07:29.432Z,6.00
2023-02-28T09:10:05.622Z,6.30
2023-02-28T09:12:37.501Z,6.77
2023-02-28T09:15:10.992Z,6.64
2023-02-28T09:17:44.419Z,6.55
2023-02-28T09:20:17.679Z,6.92
2023-02-28T09:22:49.697Z,7.34
2023-02-28T09:25:24.384Z,6.89
2023-02-28T09:27:58.465Z,6.68
2023-02-28T09:30:31.315Z,6.46
2023-02-28T09:33:07.832Z,6.09
2023-02-28T09:35:39.508Z,6.21
2023-02-28T09:38:12.406Z,6.12
2023-02-28T09:41:14.064Z,6.50
2023-02-28T09:43:57.891Z,6.73
2023-02-28T09:46:45.095Z,6.69
2023-02-28T09:49:27.063Z,6.88
2023-02-28T09:52:10.815Z,6.69
2023-02-28T09:54:43.227Z,6.44
2023-02-28T09:57:30.884Z,6.34
2023-02-28T10:00:17.464Z,6.29
2023-02-28T10:03:28.851Z,6.73
2023-02-28T10:06:13.252Z,7.19
2023-02-28T10:09:10.293Z,7.34
2023-02-28T10:11:49.766Z,7.36
2023-02-28T10:14:27.280Z,7.74
2023-02-28T10:17:26.169Z,7.89
2023-02-28T10:20:08.858Z,7.85
2023-02-28T10:23:08.571Z,7.39
2023-02-28T10:25:41.074Z,7.05
2023-02-28T10:28:19.596Z,7.16
2023-02-28T10:30:58.024Z,7.66
2023-02-28T10:33:36.306Z,8.03
2023-02-28T10:36:15.655Z,8.17
2023-02-28T10:38:48.949Z,8.15
2023-02-28T10:41:37.327Z,8.50
2023-02-28T10:44:23.099Z,8.22
2023-02-28T10:46:57.720Z,7.81
2023-02-28T10:49:31.536Z,8.06
2023-02-28T10:52:03.273Z,8.16
2023-02-28T10:54:38.842Z,8.27
2023-02-28T10:57:29.488Z,8.40
2023-02-28T11:00:32.974Z,8.53
2023-02-28T11:03:35.017Z,7.81
2023-02-28T11:06:16.224Z,7.66
2023-02-28T11:08:52.106Z,7.92
2023-02-28T11:11:26.296Z,7.95
2023-02-28T11:14:06.973Z,8.17
2023-02-28T11:17:31.744Z,7.90
2023-02-28T11:20:08.242Z,7.87
2023-02-28T11:22:46.251Z,7.61
2023-02-28T11:25:25.132Z,7.11
2023-02-28T11:28:13.090Z,7.10
2023-02-28T11:31:00.429Z,7.27
2023-02-28T11:33:51.859Z,7.49
2023-02-28T11:36:30.291Z,7.60
2023-02-28T11:39:14.122Z,8.22
2023-02-28T11:42:16.436Z,8.15
2023-02-28T11:45:16.212Z,7.59
2023-02-28T11:48:24.239Z,7.59
2023-02-28T11:51:39.634Z,7.36
2023-02-28T11:54:20.120Z,7.03
2023-02-28T11:57:01.143Z,6.90
2023-02-28T11:59:50.959Z,7.40
2023-02-28T12:02:50.678Z,7.55
2023-02-28T12:06:09.849Z,7.61
2023-02-28T12:09:12.002Z,8.03
2023-02-28T12:12:29.378Z,8.02
2023-02-28T12:15:37.224Z,7.90
2023-02-28T12:18:23.975Z,7.85
2023-02-28T12:21:12.533Z,7.74
2023-02-28T12:24:15.147Z,7.99
2023-02-28T12:26:50.369Z,7.94
2023-02-28T12:29:33.431Z,8.15
2023-02-28T12:32:10.831Z,8.20
2023-02-28T12:34:48.785Z,8.38
2023-02-28T12:37:32.809Z,7.92
2023-02-28T12:40:12.113Z,7.67
2023-02-28T12:42:51.002Z,7.67
2023-02-28T12:45:22.699Z,7.65
2023-02-28T12:48:03.970Z,7.89
2023-02-28T12:50:37.163Z,7.70
2023-02-28T12:53:21.115Z,7.62
2023-02-28T12:56:16.104Z,7.35
2023-02-28T12:59:06.094Z,7.59
2023-02-28T13:02:02.964Z,7.43
2023-02-28T13:05:10.938Z,7.16
2023-02-28T13:08:13.412Z,7.43
2023-02-28T13:11:02.243Z,7.68
2023-02-28T13:13:38.702Z,7.71
2023-02-28T13:16:11.622Z,7.71
2023-02-28T13:18:48.143Z,7.73
2023-02-28T13:21:29.484Z,7.50
2023-02-28T13:24:12.905Z,7.48
2023-02-28T13:26:53.172Z,7.29
2023-02-28T13:29:42.978Z,7.02
2023-02-28T13:32:31.305Z,6.84
2023-02-28T13:35:05.964Z,6.66
2023-02-28T13:37:44.077Z,6.54
2023-02-28T13:40:38.802Z,6.54
2023-02-28T13:43:10.664Z,6.74
2023-02-28T13:46:21.985Z,6.55
2023-02-28T13:48:54.133Z,6.32
2023-02-28T13:51:57.915Z,6.31
2023-02-28T13:55:00.859Z,6.21
2023-02-28T13:58:03.054Z,6.17
2023-02-28T14:01:00.989Z,6.02
2023-02-28T14:03:59.688Z,6.23
2023-02-28T14:06:34.429Z,6.25
2023-02-28T14:09:27.163Z,6.34
2023-02-28T14:12:37.464Z,6.27
2023-02-28T14:15:34.836Z,6.11
2023-02-28T14:18:14.804Z,6.35
2023-02-28T14:20:48.818Z,6.46
2023-02-28T14:23:23.187Z,6.42
2023-02-28T14:26:23.481Z,6.28
2023-02-28T14:29:19.730Z,6.11
2023-02-28T14:32:07.033Z,5.97
2023-02-28T14:37:37.468Z,5.87
2023-02-28T14:40:30.170Z,5.76
2023-02-28T14:43:05.104Z,5.83
2023-02-28T14:45:38.438Z,5.57
2023-02-28T14:48:13.781Z,5.54
2023-02-28T14:50:52.094Z,5.47
2023-02-28T14:53:28.554Z,5.49
2023-02-28T14:56:03.326Z,5.61
2023-02-28T14:58:35.086Z,5.42
2023-02-28T15:01:07.825Z,5.25
2023-02-28T15:04:07.220Z,5.07
2023-02-28T15:06:38.939Z,5.04
2023-02-28T15:09:17.976Z,5.13
2023-02-28T15:11:51.247Z,5.17
2023-02-28T15:14:26.299Z,5.26
2023-02-28T15:17:03.427Z,5.11
2023-02-28T15:19:41.413Z,5.10
2023-02-28T15:22:19.071Z,5.03
2023-02-28T15:24:54.747Z,5.02
2023-02-28T15:27:32.124Z,5.05
2023-02-28T15:30:35.111Z,5.06
2023-02-28T15:33:13.025Z,5.06
2023-02-28T15:35:45.490Z,4.98
2023-02-28T15:38:26.198Z,5.00
2023-02-28T15:41:01.811Z,4.85
2023-02-28T15:43:38.521Z,4.76
2023-02-28T15:46:16.820Z,4.71
2023-02-28T15:48:58.391Z,4.67
2023-02-28T15:51:40.779Z,4.62
2023-02-28T15:54:20.107Z,4.56
2023-02-28T15:56:54.897Z,4.47
2023-02-28T15:59:31.213Z,4.46
2023-02-28T16:02:22.374Z,4.48
2023-02-28T16:05:19.047Z,4.42
2023-02-28T16:07:50.698Z,4.42
2023-02-28T16:10:26.941Z,4.29
2023-02-28T16:12:58.900Z,4.25
2023-02-28T16:15:36.358Z,4.24
2023-02-28T16:18:11.274Z,4.16
2023-02-28T16:20:45.466Z,4.06
2023-02-28T16:23:17.210Z,4.03
2023-02-28T16:25:53.253Z,4.04
2023-02-28T16:28:33.719Z,3.98
2023-02-28T16:31:08.452Z,3.98
2023-02-28T16:33:41.083Z,3.83
2023-02-28T16:36:22.781Z,3.79
2023-02-28T16:38:55.957Z,3.85
2023-02-28T16:41:29.449Z,3.84
2023-02-28T16:44:04.958Z,3.78
2023-02-28T16:46:37.310Z,3.76
2023-02-28T16:49:13.891Z,3.69
2023-02-28T16:51:48.572Z,3.60
2023-02-28T16:54:20.694Z,3.58
2023-02-28T16:56:57.323Z,3.60
2023-02-28T16:59:33.109Z,3.63
2023-02-28T17:02:16.105Z,3.60
2023-02-28T17:04:48.220Z,3.49
2023-02-28T17:07:21.351Z,3.45
2023-02-28T17:09:57.545Z,3.47
2023-02-28T17:12:29.315Z,3.48
2023-02-28T17:15:04.640Z,3.44
2023-02-28T17:17:39.027Z,3.41
2023-02-28T17:20:25.432Z,3.38
2023-02-28T17:22:57.498Z,3.36
2023-02-28T17:25:29.240Z,3.37
2023-02-28T17:28:03.721Z,3.33
2023-02-28T17:30:36.206Z,3.29
2023-02-28T17:33:08.065Z,3.23
2023-02-28T17:35:40.222Z,3.29
2023-02-28T17:38:23.259Z,3.32
2023-02-28T17:40:58.223Z,3.28
2023-02-28T17:43:30.097Z,3.26
2023-02-28T17:46:02.405Z,3.29
2023-02-28T17:48:36.961Z,3.25
2023-02-28T17:51:12.649Z,3.23
2023-02-28T17:53:44.982Z,3.18
2023-02-28T17:56:26.987Z,3.16
2023-02-28T17:59:09.101Z,3.14
2023-02-28T18:01:41.118Z,3.15
2023-02-28T18:04:16.931Z,3.11
2023-02-28T18:06:54.900Z,3.11
2023-02-28T18:09:28.052Z,3.10
2023-02-28T18:12:03.076Z,3.09
2023-02-28T18:14:40.659Z,3.08
2023-02-28T18:17:25.606Z,3.09
2023-02-28T18:20:16.489Z,3.07
2023-02-28T18:22:56.838Z,3.05
2023-02-28T18:26:00.666Z,3.00
2023-02-28T18:28:35.342Z,2.97
2023-02-28T18:31:25.349Z,2.93
2023-02-28T18:34:15.929Z,2.88
2023-02-28T18:36:54.901Z,2.85
2023-02-28T18:39:30.389Z,2.82
2023-02-28T18:42:02.098Z,2.79
2023-02-28T18:44:33.845Z,2.80
2023-02-28T18:47:11.664Z,2.78
2023-02-28T18:50:26.051Z,2.75
2023-02-28T18:53:06.037Z,2.73
2023-02-28T18:55:42.357Z,2.71
2023-02-28T18:58:18.077Z,2.68
2023-02-28T19:00:55.208Z,2.62
2023-02-28T19:03:35.762Z,2.54
2023-02-28T19:06:09.837Z,2.47
2023-02-28T19:08:56.321Z,2.44
2023-02-28T19:11:47.254Z,2.43
2023-02-28T19:14:24.828Z,2.41
2023-02-28T19:17:09.089Z,2.41
2023-02-28T19:20:22.046Z,2.43
2023-02-28T19:23:15.420Z,2.44
2023-02-28T19:29:02.621Z,2.34
2023-02-28T19:31:34.789Z,2.29
2023-02-28T19:34:07.292Z,2.23
2023-02-28T19:36:39.075Z,2.21
2023-02-28T19:39:11.652Z,2.17
2023-02-28T19:41:43.662Z,2.13
2023-02-28T19:44:15.472Z,2.13
2023-02-28T19:46:47.384Z,2.12
2023-02-28T19:49:19.172Z,2.10
2023-02-28T19:51:50.947Z,2.10
2023-02-28T19:54:23.613Z,2.09
2023-02-28T19:56:57.612Z,2.11
2023-02-28T19:59:38.186Z,2.07
2023-02-28T20:02:20.720Z,2.05
2023-02-28T20:04:54.333Z,2.06
2023-02-28T20:07:32.519Z,2.02
2023-02-28T20:10:05.103Z,1.99
2023-02-28T20:12:40.183Z,1.99
2023-02-28T20:15:12.605Z,1.97
2023-02-28T20:17:49.433Z,1.93
2023-02-28T20:20:23.221Z,1.90
2023-02-28T20:22:57.239Z,1.84
2023-02-28T20:25:33.364Z,1.83
2023-02-28T20:28:04.901Z,1.80
2023-02-28T20:30:39.480Z,1.74
2023-02-28T20:33:11.591Z,1.62
2023-02-28T20:35:43.912Z,1.59
2023-02-28T20:38:21.556Z,1.57
2023-02-28T20:40:59.279Z,1.56
2023-02-28T20:43:58.242Z,1.54
2023-02-28T20:46:31.561Z,1.52
2023-02-28T20:49:04.901Z,1.54
2023-02-28T20:51:40.253Z,1.54
2023-02-28T20:54:12.093Z,1.56
2023-02-28T20:56:44.242Z,1.58
2023-02-28T20:59:20.958Z,1.59
2023-02-28T21:01:54.108Z,1.60
2023-02-28T21:04:25.889Z,1.55
2023-02-28T21:07:05.502Z,1.52
2023-02-28T21:09:45.994Z,1.50
2023-02-28T21:12:18.591Z,1.48
2023-02-28T21:14:52.931Z,1.50
2023-02-28T21:17:25.025Z,1.51
2023-02-28T21:19:56.739Z,1.52
2023-02-28T21:22:34.825Z,1.50
2023-02-28T21:25:07.232Z,1.46
2023-02-28T21:27:39.002Z,1.43
2023-02-28T21:30:12.276Z,1.42
2023-02-28T21:32:46.731Z,1.40
2023-02-28T21:35:18.575Z,1.38
2023-02-28T21:37:50.632Z,1.37
2023-02-28T21:40:25.460Z,1.34
2023-02-28T21:42:57.139Z,1.35
2023-02-28T21:45:29.293Z,1.37
2023-02-28T21:48:01.888Z,1.36
2023-02-28T21:50:33.880Z,1.35
2023-02-28T21:53:08.306Z,1.30
2023-02-28T21:55:40.379Z,1.26
2023-02-28T21:58:14.735Z,1.21
2023-02-28T22:00:46.640Z,1.22
2023-02-28T22:03:21.408Z,1.23
2023-02-28T22:05:54.368Z,1.24
2023-02-28T22:08:26.486Z,1.29
2023-02-28T22:11:02.889Z,1.29
2023-02-28T22:13:35.278Z,1.29
2023-02-28T22:16:12.548Z,1.30
2023-02-28T22:18:45.320Z,1.27
2023-02-28T22:21:23.646Z,1.24
2023-02-28T22:23:55.357Z,1.23
2023-02-28T22:26:27.151Z,1.22
2023-02-28T22:28:58.915Z,1.18
2023-02-28T22:31:33.134Z,1.13
2023-02-28T22:34:12.386Z,1.12
2023-02-28T22:36:44.407Z,1.08
2023-02-28T22:39:18.460Z,1.04
2023-02-28T22:41:50.120Z,1.03
2023-02-28T22:44:23.028Z,1.01
2023-02-28T22:46:55.161Z,0.97
2023-02-28T22:49:27.234Z,0.94
2023-02-28T22:51:59.466Z,0.92
2023-02-28T22:54:39.902Z,0.91
2023-02-28T22:57:12.568Z,0.89
2023-02-28T22:59:44.747Z,0.80
2023-02-28T23:02:16.959Z,0.74
2023-02-28T23:04:48.709Z,0.71
2023-02-28T23:07:22.475Z,0.68
2023-02-28T23:09:54.797Z,0.66
2023-02-28T23:12:27.252Z,0.66
2023-02-28T23:15:00.849Z,0.65
2023-02-28T23:17:35.561Z,0.63
2023-02-28T23:20:07.752Z,0.65
2023-02-28T23:22:46.511Z,0.65
2023-02-28T23:25:23.959Z,0.66
2023-02-28T23:27:55.930Z,0.62
2023-02-28T23:30:28.102Z,0.61
2023-02-28T23:33:03.003Z,0.58
2023-02-28T23:35:37.375Z,0.59
2023-02-28T23:38:12.162Z,0.57
2023-02-28T23:40:43.717Z,0.54
2023-02-28T23:43:15.367Z,0.50
2023-02-28T23:45:55.663Z,0.50
2023-02-28T23:48:33.668Z,0.48
2023-02-28T23:51:16.681Z,0.46
2023-02-28T23:53:52.518Z,0.47
2023-02-28T23:56:25.571Z,0.43
2023-02-28T23:58:58.047Z,0.33
